sensor_id;sensor_type;location;lat;lon;timestamp;P1;durP1;ratioP1;P2;durP2;ratioP2
65896;SDS011;52677;50.898;10.854;2023-06-22T00:01:05;6.38;;;3.90;;
65896;SDS011;52677;50.898;10.854;2023-06-22T00:03:06;5.15;;;3.85;;
65896;SDS011;52677;50.898;10.854;2023-06-22T00:05:06;5.70;;;3.70;;
65896;SDS011;52677;50.898;10.854;2023-06-22T00:07:07;5.63;;;4.07;;
65896;SDS011;52677;50.898;10.854;2023-06-22T00:09:08;6.25;;;4.47;;
65896;SDS011;52677;50.898;10.854;2023-06-22T00:11:10;8.73;;;3.97;;
65896;SDS011;52677;50.898;10.854;2023-06-22T00:13:10;4.15;;;3.45;;
65896;SDS011;52677;50.898;10.854;2023-06-22T00:15:12;6.28;;;3.63;;
65896;SDS011;52677;50.898;10.854;2023-06-22T00:17:12;5.95;;;3.80;;
65896;SDS011;52677;50.898;10.854;2023-06-22T00:19:12;6.75;;;3.90;;
65896;SDS011;52677;50.898;10.854;2023-06-22T00:21:13;4.45;;;3.78;;
65896;SDS011;52677;50.898;10.854;2023-06-22T00:23:13;6.40;;;3.50;;
65896;SDS011;52677;50.898;10.854;2023-06-22T00:25:15;10.57;;;4.28;;
65896;SDS011;52677;50.898;10.854;2023-06-22T00:27:16;5.68;;;4.07;;
65896;SDS011;52677;50.898;10.854;2023-06-22T00:29:16;4.60;;;3.55;;
65896;SDS011;52677;50.898;10.854;2023-06-22T00:31:17;4.65;;;3.88;;
65896;SDS011;52677;50.898;10.854;2023-06-22T00:33:17;4.20;;;3.50;;
65896;SDS011;52677;50.898;10.854;2023-06-22T00:35:17;4.47;;;3.80;;
65896;SDS011;52677;50.898;10.854;2023-06-22T00:37:18;6.90;;;3.97;;
65896;SDS011;52677;50.898;10.854;2023-06-22T00:39:18;4.22;;;3.58;;
65896;SDS011;52677;50.898;10.854;2023-06-22T00:41:18;4.60;;;4.05;;
65896;SDS011;52677;50.898;10.854;2023-06-22T00:43:19;5.25;;;4.75;;
65896;SDS011;52677;50.898;10.854;2023-06-22T00:45:19;6.65;;;3.83;;
65896;SDS011;52677;50.898;10.854;2023-06-22T00:47:20;5.72;;;4.07;;
65896;SDS011;52677;50.898;10.854;2023-06-22T00:49:21;6.75;;;4.00;;
65896;SDS011;52677;50.898;10.854;2023-06-22T00:51:21;6.40;;;4.68;;
65896;SDS011;52677;50.898;10.854;2023-06-22T00:53:24;6.88;;;4.18;;
65896;SDS011;52677;50.898;10.854;2023-06-22T00:55:25;5.70;;;4.18;;
65896;SDS011;52677;50.898;10.854;2023-06-22T00:57:26;5.38;;;4.55;;
65896;SDS011;52677;50.898;10.854;2023-06-22T00:59:28;5.55;;;4.25;;
65896;SDS011;52677;50.898;10.854;2023-06-22T01:01:28;5.80;;;4.35;;
65896;SDS011;52677;50.898;10.854;2023-06-22T01:03:29;4.75;;;4.15;;
65896;SDS011;52677;50.898;10.854;2023-06-22T01:05:29;4.85;;;4.07;;
65896;SDS011;52677;50.898;10.854;2023-06-22T01:07:34;7.78;;;4.38;;
65896;SDS011;52677;50.898;10.854;2023-06-22T01:09:39;4.38;;;3.72;;
65896;SDS011;52677;50.898;10.854;2023-06-22T01:11:52;6.05;;;4.10;;
65896;SDS011;52677;50.898;10.854;2023-06-22T01:16:03;4.85;;;3.70;;
65896;SDS011;52677;50.898;10.854;2023-06-22T01:18:07;9.23;;;4.35;;
65896;SDS011;52677;50.898;10.854;2023-06-22T01:20:09;7.07;;;4.45;;
65896;SDS011;52677;50.898;10.854;2023-06-22T01:22:12;6.32;;;4.28;;
65896;SDS011;52677;50.898;10.854;2023-06-22T01:24:22;6.70;;;4.63;;
65896;SDS011;52677;50.898;10.854;2023-06-22T01:28:43;8.57;;;5.45;;
65896;SDS011;52677;50.898;10.854;2023-06-22T01:30:46;9.63;;;4.95;;
65896;SDS011;52677;50.898;10.854;2023-06-22T01:32:48;6.15;;;4.38;;
65896;SDS011;52677;50.898;10.854;2023-06-22T01:34:50;6.60;;;4.80;;
65896;SDS011;52677;50.898;10.854;2023-06-22T01:36:51;6.88;;;5.10;;
65896;SDS011;52677;50.898;10.854;2023-06-22T01:38:53;9.13;;;5.17;;
65896;SDS011;52677;50.898;10.854;2023-06-22T01:40:54;8.85;;;5.18;;
65896;SDS011;52677;50.898;10.854;2023-06-22T01:42:56;6.22;;;4.72;;
65896;SDS011;52677;50.898;10.854;2023-06-22T01:44:57;6.43;;;5.13;;
65896;SDS011;52677;50.898;10.854;2023-06-22T01:46:59;7.85;;;4.90;;
65896;SDS011;52677;50.898;10.854;2023-06-22T01:49:00;10.45;;;5.15;;
65896;SDS011;52677;50.898;10.854;2023-06-22T01:51:02;6.68;;;4.55;;
65896;SDS011;52677;50.898;10.854;2023-06-22T01:53:03;5.88;;;4.22;;
65896;SDS011;52677;50.898;10.854;2023-06-22T01:55:03;5.32;;;4.30;;
65896;SDS011;52677;50.898;10.854;2023-06-22T01:57:04;6.97;;;4.28;;
65896;SDS011;52677;50.898;10.854;2023-06-22T01:59:19;8.15;;;4.28;;
65896;SDS011;52677;50.898;10.854;2023-06-22T02:01:31;6.22;;;4.65;;
65896;SDS011;52677;50.898;10.854;2023-06-22T02:03:41;6.72;;;5.00;;
65896;SDS011;52677;50.898;10.854;2023-06-22T02:05:49;7.78;;;4.32;;
65896;SDS011;52677;50.898;10.854;2023-06-22T02:08:02;8.73;;;4.88;;
65896;SDS011;52677;50.898;10.854;2023-06-22T02:10:09;6.60;;;4.57;;
65896;SDS011;52677;50.898;10.854;2023-06-22T02:12:13;6.53;;;5.18;;
65896;SDS011;52677;50.898;10.854;2023-06-22T02:14:18;9.68;;;5.13;;
65896;SDS011;52677;50.898;10.854;2023-06-22T02:16:18;8.20;;;5.10;;
65896;SDS011;52677;50.898;10.854;2023-06-22T02:18:19;7.10;;;5.05;;
65896;SDS011;52677;50.898;10.854;2023-06-22T02:20:20;5.97;;;5.07;;
65896;SDS011;52677;50.898;10.854;2023-06-22T02:22:21;9.13;;;5.63;;
65896;SDS011;52677;50.898;10.854;2023-06-22T02:24:21;7.25;;;4.97;;
65896;SDS011;52677;50.898;10.854;2023-06-22T02:26:23;5.50;;;4.90;;
65896;SDS011;52677;50.898;10.854;2023-06-22T02:28:25;7.45;;;5.90;;
65896;SDS011;52677;50.898;10.854;2023-06-22T02:30:25;7.43;;;5.25;;
65896;SDS011;52677;50.898;10.854;2023-06-22T02:32:25;8.35;;;5.78;;
65896;SDS011;52677;50.898;10.854;2023-06-22T02:34:26;9.80;;;5.50;;
65896;SDS011;52677;50.898;10.854;2023-06-22T02:36:26;6.82;;;5.65;;
65896;SDS011;52677;50.898;10.854;2023-06-22T02:38:27;13.32;;;6.97;;
65896;SDS011;52677;50.898;10.854;2023-06-22T02:40:27;7.90;;;5.88;;
65896;SDS011;52677;50.898;10.854;2023-06-22T02:42:32;8.13;;;5.75;;
65896;SDS011;52677;50.898;10.854;2023-06-22T02:44:32;10.77;;;6.50;;
65896;SDS011;52677;50.898;10.854;2023-06-22T02:46:32;9.57;;;5.90;;
65896;SDS011;52677;50.898;10.854;2023-06-22T02:48:33;12.02;;;6.38;;
65896;SDS011;52677;50.898;10.854;2023-06-22T02:50:33;13.05;;;6.35;;
65896;SDS011;52677;50.898;10.854;2023-06-22T02:52:34;12.77;;;7.15;;
65896;SDS011;52677;50.898;10.854;2023-06-22T02:54:34;12.30;;;6.57;;
65896;SDS011;52677;50.898;10.854;2023-06-22T02:56:34;10.75;;;5.63;;
65896;SDS011;52677;50.898;10.854;2023-06-22T02:58:36;7.95;;;5.97;;
65896;SDS011;52677;50.898;10.854;2023-06-22T03:00:38;11.73;;;7.32;;
65896;SDS011;52677;50.898;10.854;2023-06-22T03:02:39;10.50;;;6.88;;
65896;SDS011;52677;50.898;10.854;2023-06-22T03:04:39;11.27;;;6.80;;
65896;SDS011;52677;50.898;10.854;2023-06-22T03:06:39;11.75;;;6.93;;
65896;SDS011;52677;50.898;10.854;2023-06-22T03:08:40;16.17;;;6.70;;
65896;SDS011;52677;50.898;10.854;2023-06-22T03:10:41;14.85;;;6.80;;
65896;SDS011;52677;50.898;10.854;2023-06-22T03:12:42;12.05;;;6.88;;
65896;SDS011;52677;50.898;10.854;2023-06-22T03:14:43;11.25;;;7.28;;
65896;SDS011;52677;50.898;10.854;2023-06-22T03:16:43;12.55;;;6.97;;
65896;SDS011;52677;50.898;10.854;2023-06-22T03:18:44;13.82;;;7.30;;
65896;SDS011;52677;50.898;10.854;2023-06-22T03:20:44;16.30;;;7.30;;
65896;SDS011;52677;50.898;10.854;2023-06-22T03:22:44;12.02;;;6.13;;
65896;SDS011;52677;50.898;10.854;2023-06-22T03:24:45;9.70;;;6.90;;
65896;SDS011;52677;50.898;10.854;2023-06-22T03:26:45;10.18;;;6.93;;
65896;SDS011;52677;50.898;10.854;2023-06-22T03:28:46;14.00;;;6.88;;
65896;SDS011;52677;50.898;10.854;2023-06-22T03:30:47;12.77;;;7.03;;
65896;SDS011;52677;50.898;10.854;2023-06-22T03:32:47;12.50;;;7.10;;
65896;SDS011;52677;50.898;10.854;2023-06-22T03:34:47;13.38;;;7.75;;
65896;SDS011;52677;50.898;10.854;2023-06-22T03:36:48;10.25;;;6.72;;
65896;SDS011;52677;50.898;10.854;2023-06-22T03:38:48;11.27;;;6.50;;
65896;SDS011;52677;50.898;10.854;2023-06-22T03:40:50;15.33;;;6.73;;
65896;SDS011;52677;50.898;10.854;2023-06-22T03:42:50;16.17;;;7.00;;
65896;SDS011;52677;50.898;10.854;2023-06-22T03:44:50;17.13;;;7.68;;
65896;SDS011;52677;50.898;10.854;2023-06-22T03:46:51;12.13;;;6.57;;
65896;SDS011;52677;50.898;10.854;2023-06-22T03:48:51;11.32;;;7.78;;
65896;SDS011;52677;50.898;10.854;2023-06-22T03:50:51;11.70;;;7.05;;
65896;SDS011;52677;50.898;10.854;2023-06-22T03:52:51;14.05;;;6.68;;
65896;SDS011;52677;50.898;10.854;2023-06-22T03:54:52;15.32;;;8.73;;
65896;SDS011;52677;50.898;10.854;2023-06-22T03:56:52;14.70;;;6.32;;
65896;SDS011;52677;50.898;10.854;2023-06-22T03:58:53;11.20;;;6.82;;
65896;SDS011;52677;50.898;10.854;2023-06-22T04:00:53;16.88;;;7.65;;
65896;SDS011;52677;50.898;10.854;2023-06-22T04:02:53;23.75;;;8.55;;
65896;SDS011;52677;50.898;10.854;2023-06-22T04:04:54;16.20;;;7.65;;
65896;SDS011;52677;50.898;10.854;2023-06-22T04:06:54;11.80;;;8.43;;
65896;SDS011;52677;50.898;10.854;2023-06-22T04:08:54;14.18;;;9.13;;
65896;SDS011;52677;50.898;10.854;2023-06-22T04:10:55;13.65;;;8.80;;
65896;SDS011;52677;50.898;10.854;2023-06-22T04:12:55;12.95;;;8.38;;
65896;SDS011;52677;50.898;10.854;2023-06-22T04:14:56;19.95;;;8.63;;
65896;SDS011;52677;50.898;10.854;2023-06-22T04:16:57;10.55;;;7.40;;
65896;SDS011;52677;50.898;10.854;2023-06-22T04:18:58;13.50;;;8.32;;
65896;SDS011;52677;50.898;10.854;2023-06-22T04:20:58;10.43;;;7.68;;
65896;SDS011;52677;50.898;10.854;2023-06-22T04:22:58;14.13;;;7.25;;
65896;SDS011;52677;50.898;10.854;2023-06-22T04:24:59;10.43;;;6.97;;
65896;SDS011;52677;50.898;10.854;2023-06-22T04:26:59;10.68;;;7.20;;
65896;SDS011;52677;50.898;10.854;2023-06-22T04:29:05;10.45;;;7.38;;
65896;SDS011;52677;50.898;10.854;2023-06-22T04:31:06;13.27;;;7.72;;
65896;SDS011;52677;50.898;10.854;2023-06-22T04:33:06;11.52;;;6.95;;
65896;SDS011;52677;50.898;10.854;2023-06-22T04:35:06;9.25;;;7.20;;
65896;SDS011;52677;50.898;10.854;2023-06-22T04:37:07;11.52;;;6.90;;
65896;SDS011;52677;50.898;10.854;2023-06-22T04:39:08;9.90;;;7.55;;
65896;SDS011;52677;50.898;10.854;2023-06-22T04:41:09;16.73;;;8.63;;
65896;SDS011;52677;50.898;10.854;2023-06-22T04:43:14;11.73;;;8.40;;
65896;SDS011;52677;50.898;10.854;2023-06-22T04:45:14;10.90;;;8.32;;
65896;SDS011;52677;50.898;10.854;2023-06-22T04:47:14;13.82;;;9.35;;
65896;SDS011;52677;50.898;10.854;2023-06-22T04:49:15;15.35;;;8.35;;
65896;SDS011;52677;50.898;10.854;2023-06-22T04:51:15;10.10;;;7.30;;
65896;SDS011;52677;50.898;10.854;2023-06-22T04:53:15;9.50;;;7.57;;
65896;SDS011;52677;50.898;10.854;2023-06-22T04:55:16;11.98;;;7.65;;
65896;SDS011;52677;50.898;10.854;2023-06-22T04:57:19;11.20;;;8.27;;
65896;SDS011;52677;50.898;10.854;2023-06-22T04:59:20;12.93;;;8.77;;
65896;SDS011;52677;50.898;10.854;2023-06-22T05:01:20;12.88;;;7.75;;
65896;SDS011;52677;50.898;10.854;2023-06-22T05:03:22;15.03;;;9.37;;
65896;SDS011;52677;50.898;10.854;2023-06-22T05:05:22;14.18;;;8.23;;
65896;SDS011;52677;50.898;10.854;2023-06-22T05:07:22;12.65;;;9.80;;
65896;SDS011;52677;50.898;10.854;2023-06-22T05:09:25;18.73;;;10.43;;
65896;SDS011;52677;50.898;10.854;2023-06-22T05:11:26;13.48;;;8.98;;
65896;SDS011;52677;50.898;10.854;2023-06-22T05:13:27;11.80;;;8.60;;
65896;SDS011;52677;50.898;10.854;2023-06-22T05:15:27;11.07;;;8.55;;
65896;SDS011;52677;50.898;10.854;2023-06-22T05:19:30;12.98;;;9.38;;
65896;SDS011;52677;50.898;10.854;2023-06-22T05:21:33;13.93;;;9.57;;
65896;SDS011;52677;50.898;10.854;2023-06-22T05:23:33;11.63;;;8.55;;
65896;SDS011;52677;50.898;10.854;2023-06-22T05:25:34;10.48;;;8.63;;
65896;SDS011;52677;50.898;10.854;2023-06-22T05:27:34;15.10;;;8.55;;
65896;SDS011;52677;50.898;10.854;2023-06-22T05:29:39;11.43;;;8.00;;
65896;SDS011;52677;50.898;10.854;2023-06-22T05:31:40;13.60;;;9.02;;
65896;SDS011;52677;50.898;10.854;2023-06-22T05:33:41;10.60;;;8.23;;
65896;SDS011;52677;50.898;10.854;2023-06-22T05:35:41;12.43;;;8.85;;
65896;SDS011;52677;50.898;10.854;2023-06-22T05:37:42;11.95;;;8.65;;
65896;SDS011;52677;50.898;10.854;2023-06-22T05:39:42;9.20;;;7.75;;
65896;SDS011;52677;50.898;10.854;2023-06-22T05:41:44;9.95;;;7.90;;
65896;SDS011;52677;50.898;10.854;2023-06-22T05:43:45;11.10;;;8.45;;
65896;SDS011;52677;50.898;10.854;2023-06-22T05:45:45;10.50;;;8.20;;
65896;SDS011;52677;50.898;10.854;2023-06-22T05:47:46;13.98;;;8.43;;
65896;SDS011;52677;50.898;10.854;2023-06-22T05:49:46;8.73;;;7.72;;
65896;SDS011;52677;50.898;10.854;2023-06-22T05:51:46;11.90;;;8.70;;
65896;SDS011;52677;50.898;10.854;2023-06-22T05:53:47;13.10;;;8.93;;
65896;SDS011;52677;50.898;10.854;2023-06-22T05:55:49;9.82;;;6.80;;
65896;SDS011;52677;50.898;10.854;2023-06-22T05:57:50;10.82;;;7.82;;
65896;SDS011;52677;50.898;10.854;2023-06-22T05:59:50;10.68;;;8.82;;
65896;SDS011;52677;50.898;10.854;2023-06-22T06:01:51;12.73;;;8.73;;
65896;SDS011;52677;50.898;10.854;2023-06-22T06:03:52;10.43;;;8.82;;
65896;SDS011;52677;50.898;10.854;2023-06-22T06:05:52;14.07;;;7.68;;
65896;SDS011;52677;50.898;10.854;2023-06-22T06:07:53;9.68;;;6.82;;
65896;SDS011;52677;50.898;10.854;2023-06-22T06:09:53;10.70;;;7.90;;
65896;SDS011;52677;50.898;10.854;2023-06-22T06:11:53;10.27;;;7.38;;
65896;SDS011;52677;50.898;10.854;2023-06-22T06:13:54;9.57;;;7.78;;
65896;SDS011;52677;50.898;10.854;2023-06-22T06:15:54;9.05;;;7.45;;
65896;SDS011;52677;50.898;10.854;2023-06-22T06:17:57;8.35;;;7.05;;
65896;SDS011;52677;50.898;10.854;2023-06-22T06:19:58;10.15;;;7.93;;
65896;SDS011;52677;50.898;10.854;2023-06-22T06:21:59;11.43;;;8.68;;
65896;SDS011;52677;50.898;10.854;2023-06-22T06:24:00;11.45;;;8.35;;
65896;SDS011;52677;50.898;10.854;2023-06-22T06:26:00;10.07;;;7.95;;
65896;SDS011;52677;50.898;10.854;2023-06-22T06:28:01;12.57;;;7.82;;
65896;SDS011;52677;50.898;10.854;2023-06-22T06:30:01;11.27;;;7.85;;
65896;SDS011;52677;50.898;10.854;2023-06-22T06:32:03;12.80;;;7.67;;
65896;SDS011;52677;50.898;10.854;2023-06-22T06:34:03;7.93;;;7.13;;
65896;SDS011;52677;50.898;10.854;2023-06-22T06:36:04;9.68;;;7.75;;
65896;SDS011;52677;50.898;10.854;2023-06-22T06:38:04;11.20;;;8.50;;
65896;SDS011;52677;50.898;10.854;2023-06-22T06:40:05;12.05;;;8.00;;
65896;SDS011;52677;50.898;10.854;2023-06-22T06:42:10;8.60;;;7.28;;
65896;SDS011;52677;50.898;10.854;2023-06-22T06:44:11;10.10;;;7.53;;
65896;SDS011;52677;50.898;10.854;2023-06-22T06:46:11;11.35;;;7.60;;
65896;SDS011;52677;50.898;10.854;2023-06-22T06:48:11;10.35;;;7.75;;
65896;SDS011;52677;50.898;10.854;2023-06-22T06:50:12;8.60;;;7.60;;
65896;SDS011;52677;50.898;10.854;2023-06-22T06:52:12;9.93;;;7.68;;
65896;SDS011;52677;50.898;10.854;2023-06-22T06:54:13;9.68;;;8.07;;
65896;SDS011;52677;50.898;10.854;2023-06-22T06:56:13;9.05;;;7.93;;
65896;SDS011;52677;50.898;10.854;2023-06-22T06:58:14;9.05;;;8.15;;
65896;SDS011;52677;50.898;10.854;2023-06-22T07:00:15;10.52;;;8.85;;
65896;SDS011;52677;50.898;10.854;2023-06-22T07:02:15;9.48;;;8.15;;
65896;SDS011;52677;50.898;10.854;2023-06-22T07:04:16;10.38;;;9.00;;
65896;SDS011;52677;50.898;10.854;2023-06-22T07:06:16;10.13;;;8.48;;
65896;SDS011;52677;50.898;10.854;2023-06-22T07:08:17;10.30;;;8.00;;
65896;SDS011;52677;50.898;10.854;2023-06-22T07:10:17;10.73;;;8.82;;
65896;SDS011;52677;50.898;10.854;2023-06-22T07:12:17;12.20;;;8.88;;
65896;SDS011;52677;50.898;10.854;2023-06-22T07:14:18;10.35;;;8.30;;
65896;SDS011;52677;50.898;10.854;2023-06-22T07:16:18;11.23;;;8.93;;
65896;SDS011;52677;50.898;10.854;2023-06-22T07:18:18;11.43;;;9.00;;
65896;SDS011;52677;50.898;10.854;2023-06-22T07:20:19;16.98;;;9.20;;
65896;SDS011;52677;50.898;10.854;2023-06-22T07:22:19;12.25;;;8.57;;
65896;SDS011;52677;50.898;10.854;2023-06-22T07:24:24;12.45;;;9.75;;
65896;SDS011;52677;50.898;10.854;2023-06-22T07:26:24;11.63;;;9.38;;
65896;SDS011;52677;50.898;10.854;2023-06-22T07:28:25;11.02;;;9.25;;
65896;SDS011;52677;50.898;10.854;2023-06-22T07:30:25;10.27;;;9.02;;
65896;SDS011;52677;50.898;10.854;2023-06-22T07:32:26;11.05;;;9.40;;
65896;SDS011;52677;50.898;10.854;2023-06-22T07:34:28;9.63;;;8.63;;
65896;SDS011;52677;50.898;10.854;2023-06-22T07:36:29;11.77;;;9.40;;
65896;SDS011;52677;50.898;10.854;2023-06-22T07:38:30;12.13;;;9.93;;
65896;SDS011;52677;50.898;10.854;2023-06-22T07:40:30;9.52;;;8.52;;
65896;SDS011;52677;50.898;10.854;2023-06-22T07:42:30;11.98;;;9.55;;
65896;SDS011;52677;50.898;10.854;2023-06-22T07:46:33;10.85;;;9.20;;
65896;SDS011;52677;50.898;10.854;2023-06-22T07:48:36;10.23;;;8.95;;
65896;SDS011;52677;50.898;10.854;2023-06-22T07:50:37;9.88;;;8.30;;
65896;SDS011;52677;50.898;10.854;2023-06-22T07:52:37;10.98;;;9.27;;
65896;SDS011;52677;50.898;10.854;2023-06-22T07:54:37;9.40;;;8.45;;
65896;SDS011;52677;50.898;10.854;2023-06-22T07:56:38;12.88;;;9.15;;
65896;SDS011;52677;50.898;10.854;2023-06-22T07:58:38;10.60;;;8.95;;
65896;SDS011;52677;50.898;10.854;2023-06-22T08:00:39;10.73;;;8.98;;
65896;SDS011;52677;50.898;10.854;2023-06-22T08:02:39;9.65;;;8.45;;
65896;SDS011;52677;50.898;10.854;2023-06-22T08:04:41;10.80;;;8.52;;
65896;SDS011;52677;50.898;10.854;2023-06-22T08:06:41;11.63;;;9.23;;
65896;SDS011;52677;50.898;10.854;2023-06-22T08:08:42;11.57;;;8.90;;
65896;SDS011;52677;50.898;10.854;2023-06-22T08:10:43;10.75;;;8.85;;
65896;SDS011;52677;50.898;10.854;2023-06-22T08:12:43;9.80;;;7.57;;
65896;SDS011;52677;50.898;10.854;2023-06-22T08:14:43;13.98;;;8.60;;
65896;SDS011;52677;50.898;10.854;2023-06-22T08:18:46;12.73;;;9.25;;
65896;SDS011;52677;50.898;10.854;2023-06-22T08:20:47;9.85;;;8.63;;
65896;SDS011;52677;50.898;10.854;2023-06-22T08:22:47;10.27;;;8.35;;
65896;SDS011;52677;50.898;10.854;2023-06-22T08:24:47;11.20;;;8.90;;
65896;SDS011;52677;50.898;10.854;2023-06-22T08:26:50;9.50;;;8.35;;
65896;SDS011;52677;50.898;10.854;2023-06-22T08:28:51;12.80;;;8.68;;
65896;SDS011;52677;50.898;10.854;2023-06-22T08:30:52;9.77;;;8.73;;
65896;SDS011;52677;50.898;10.854;2023-06-22T08:32:53;12.70;;;8.32;;
65896;SDS011;52677;50.898;10.854;2023-06-22T08:34:55;11.27;;;9.23;;
65896;SDS011;52677;50.898;10.854;2023-06-22T08:36:56;8.70;;;7.78;;
65896;SDS011;52677;50.898;10.854;2023-06-22T08:38:57;9.23;;;8.18;;
65896;SDS011;52677;50.898;10.854;2023-06-22T08:40:57;12.32;;;8.55;;
65896;SDS011;52677;50.898;10.854;2023-06-22T08:42:58;10.48;;;8.52;;
65896;SDS011;52677;50.898;10.854;2023-06-22T08:44:58;13.93;;;8.98;;
65896;SDS011;52677;50.898;10.854;2023-06-22T08:46:58;9.13;;;8.18;;
65896;SDS011;52677;50.898;10.854;2023-06-22T08:48:59;9.50;;;8.55;;
65896;SDS011;52677;50.898;10.854;2023-06-22T08:50:59;10.88;;;8.55;;
65896;SDS011;52677;50.898;10.854;2023-06-22T08:52:59;10.85;;;8.38;;
65896;SDS011;52677;50.898;10.854;2023-06-22T08:55:00;10.55;;;8.80;;
65896;SDS011;52677;50.898;10.854;2023-06-22T08:57:01;11.70;;;9.25;;
65896;SDS011;52677;50.898;10.854;2023-06-22T08:59:02;11.40;;;9.32;;
65896;SDS011;52677;50.898;10.854;2023-06-22T09:01:02;9.63;;;8.73;;
65896;SDS011;52677;50.898;10.854;2023-06-22T09:03:04;9.52;;;8.57;;
65896;SDS011;52677;50.898;10.854;2023-06-22T09:05:04;14.65;;;9.45;;
65896;SDS011;52677;50.898;10.854;2023-06-22T09:07:05;15.13;;;8.60;;
65896;SDS011;52677;50.898;10.854;2023-06-22T09:09:06;10.88;;;9.80;;
65896;SDS011;52677;50.898;10.854;2023-06-22T09:11:06;9.55;;;8.55;;
65896;SDS011;52677;50.898;10.854;2023-06-22T09:13:07;10.18;;;9.02;;
65896;SDS011;52677;50.898;10.854;2023-06-22T09:15:07;11.25;;;8.93;;
65896;SDS011;52677;50.898;10.854;2023-06-22T09:17:08;10.82;;;9.35;;
65896;SDS011;52677;50.898;10.854;2023-06-22T09:19:08;9.75;;;8.85;;
65896;SDS011;52677;50.898;10.854;2023-06-22T09:21:09;10.90;;;9.20;;
65896;SDS011;52677;50.898;10.854;2023-06-22T09:23:09;11.07;;;8.95;;
65896;SDS011;52677;50.898;10.854;2023-06-22T09:25:09;12.88;;;9.48;;
65896;SDS011;52677;50.898;10.854;2023-06-22T09:27:10;9.90;;;8.90;;
65896;SDS011;52677;50.898;10.854;2023-06-22T09:29:10;12.15;;;8.90;;
65896;SDS011;52677;50.898;10.854;2023-06-22T09:31:10;11.63;;;9.43;;
65896;SDS011;52677;50.898;10.854;2023-06-22T09:33:11;13.57;;;8.68;;
65896;SDS011;52677;50.898;10.854;2023-06-22T09:35:11;11.77;;;9.05;;
65896;SDS011;52677;50.898;10.854;2023-06-22T09:37:13;11.25;;;9.27;;
65896;SDS011;52677;50.898;10.854;2023-06-22T09:39:13;9.38;;;8.38;;
65896;SDS011;52677;50.898;10.854;2023-06-22T09:41:14;10.23;;;8.85;;
65896;SDS011;52677;50.898;10.854;2023-06-22T09:43:14;10.02;;;8.80;;
65896;SDS011;52677;50.898;10.854;2023-06-22T09:45:15;12.30;;;8.63;;
65896;SDS011;52677;50.898;10.854;2023-06-22T09:47:15;9.25;;;8.18;;
65896;SDS011;52677;50.898;10.854;2023-06-22T09:49:15;11.07;;;8.13;;
65896;SDS011;52677;50.898;10.854;2023-06-22T09:51:16;11.60;;;8.18;;
65896;SDS011;52677;50.898;10.854;2023-06-22T09:53:16;10.25;;;8.75;;
65896;SDS011;52677;50.898;10.854;2023-06-22T09:55:16;12.93;;;8.45;;
65896;SDS011;52677;50.898;10.854;2023-06-22T09:57:17;10.35;;;9.35;;
65896;SDS011;52677;50.898;10.854;2023-06-22T09:59:17;9.57;;;8.57;;
65896;SDS011;52677;50.898;10.854;2023-06-22T10:01:18;9.38;;;8.00;;
65896;SDS011;52677;50.898;10.854;2023-06-22T10:03:18;10.40;;;8.88;;
65896;SDS011;52677;50.898;10.854;2023-06-22T10:05:18;10.27;;;9.10;;
65896;SDS011;52677;50.898;10.854;2023-06-22T10:07:19;12.20;;;8.98;;
65896;SDS011;52677;50.898;10.854;2023-06-22T10:09:19;9.93;;;8.48;;
65896;SDS011;52677;50.898;10.854;2023-06-22T10:11:19;9.57;;;8.68;;
65896;SDS011;52677;50.898;10.854;2023-06-22T10:13:20;8.82;;;8.02;;
65896;SDS011;52677;50.898;10.854;2023-06-22T10:15:20;17.25;;;8.27;;
65896;SDS011;52677;50.898;10.854;2023-06-22T10:17:21;9.75;;;8.63;;
65896;SDS011;52677;50.898;10.854;2023-06-22T10:19:21;10.27;;;8.57;;
65896;SDS011;52677;50.898;10.854;2023-06-22T10:21:21;12.35;;;9.32;;
65896;SDS011;52677;50.898;10.854;2023-06-22T10:23:22;12.57;;;9.25;;
65896;SDS011;52677;50.898;10.854;2023-06-22T10:25:22;10.75;;;9.30;;
65896;SDS011;52677;50.898;10.854;2023-06-22T10:27:22;10.18;;;8.90;;
65896;SDS011;52677;50.898;10.854;2023-06-22T10:29:23;10.45;;;9.35;;
65896;SDS011;52677;50.898;10.854;2023-06-22T10:31:23;12.65;;;9.60;;
65896;SDS011;52677;50.898;10.854;2023-06-22T10:33:23;10.15;;;9.10;;
65896;SDS011;52677;50.898;10.854;2023-06-22T10:35:24;10.60;;;8.77;;
65896;SDS011;52677;50.898;10.854;2023-06-22T10:37:24;10.25;;;8.82;;
65896;SDS011;52677;50.898;10.854;2023-06-22T10:39:24;10.18;;;9.18;;
65896;SDS011;52677;50.898;10.854;2023-06-22T10:41:25;10.75;;;9.18;;
65896;SDS011;52677;50.898;10.854;2023-06-22T10:43:25;11.95;;;8.63;;
65896;SDS011;52677;50.898;10.854;2023-06-22T10:45:26;10.80;;;9.07;;
65896;SDS011;52677;50.898;10.854;2023-06-22T10:47:27;12.27;;;9.33;;
65896;SDS011;52677;50.898;10.854;2023-06-22T10:49:27;10.90;;;9.23;;
65896;SDS011;52677;50.898;10.854;2023-06-22T10:51:27;10.65;;;9.50;;
65896;SDS011;52677;50.898;10.854;2023-06-22T10:53:28;10.05;;;8.95;;
65896;SDS011;52677;50.898;10.854;2023-06-22T10:55:28;9.63;;;8.63;;
65896;SDS011;52677;50.898;10.854;2023-06-22T10:57:28;10.07;;;8.48;;
65896;SDS011;52677;50.898;10.854;2023-06-22T10:59:29;9.60;;;8.80;;
65896;SDS011;52677;50.898;10.854;2023-06-22T11:01:29;13.57;;;9.05;;
65896;SDS011;52677;50.898;10.854;2023-06-22T11:03:31;10.23;;;9.30;;
65896;SDS011;52677;50.898;10.854;2023-06-22T11:05:31;9.10;;;8.20;;
65896;SDS011;52677;50.898;10.854;2023-06-22T11:07:32;10.13;;;8.30;;
65896;SDS011;52677;50.898;10.854;2023-06-22T11:09:32;13.15;;;8.73;;
65896;SDS011;52677;50.898;10.854;2023-06-22T11:11:33;10.82;;;9.35;;
65896;SDS011;52677;50.898;10.854;2023-06-22T11:13:33;10.43;;;8.60;;
65896;SDS011;52677;50.898;10.854;2023-06-22T11:15:33;12.07;;;8.63;;
65896;SDS011;52677;50.898;10.854;2023-06-22T11:17:34;11.00;;;8.60;;
65896;SDS011;52677;50.898;10.854;2023-06-22T11:19:34;10.20;;;9.05;;
65896;SDS011;52677;50.898;10.854;2023-06-22T11:21:34;9.32;;;8.43;;
65896;SDS011;52677;50.898;10.854;2023-06-22T11:23:35;11.75;;;8.80;;
65896;SDS011;52677;50.898;10.854;2023-06-22T11:25:35;9.18;;;8.30;;
65896;SDS011;52677;50.898;10.854;2023-06-22T11:27:38;9.45;;;8.45;;
65896;SDS011;52677;50.898;10.854;2023-06-22T11:29:38;10.63;;;9.13;;
65896;SDS011;52677;50.898;10.854;2023-06-22T11:31:39;9.00;;;8.10;;
65896;SDS011;52677;50.898;10.854;2023-06-22T11:33:40;10.38;;;8.18;;
65896;SDS011;52677;50.898;10.854;2023-06-22T11:35:40;10.27;;;8.32;;
65896;SDS011;52677;50.898;10.854;2023-06-22T11:37:41;10.35;;;8.13;;
65896;SDS011;52677;50.898;10.854;2023-06-22T11:39:42;9.20;;;8.30;;
65896;SDS011;52677;50.898;10.854;2023-06-22T11:41:42;9.48;;;8.57;;
65896;SDS011;52677;50.898;10.854;2023-06-22T11:43:43;9.77;;;7.93;;
65896;SDS011;52677;50.898;10.854;2023-06-22T11:45:44;8.57;;;7.70;;
65896;SDS011;52677;50.898;10.854;2023-06-22T11:47:44;9.10;;;8.20;;
65896;SDS011;52677;50.898;10.854;2023-06-22T11:49:45;11.73;;;8.13;;
65896;SDS011;52677;50.898;10.854;2023-06-22T11:51:45;9.25;;;8.35;;
65896;SDS011;52677;50.898;10.854;2023-06-22T11:53:45;8.63;;;7.72;;
65896;SDS011;52677;50.898;10.854;2023-06-22T11:55:45;9.20;;;8.30;;
65896;SDS011;52677;50.898;10.854;2023-06-22T11:57:53;9.50;;;8.50;;
65896;SDS011;52677;50.898;10.854;2023-06-22T11:59:55;10.15;;;8.57;;
65896;SDS011;52677;50.898;10.854;2023-06-22T12:01:55;12.98;;;7.90;;